Time;durP1;ratioP1;P1;durP2;ratioP2;P2;SDS_P1;SDS_P2;PMS_P1;PMS_P2;Temp;Humidity;BMP_temperature;BMP_pressure;BME280_temperature;BME280_humidity;BME280_pressure;Samples;Min_cycle;Max_cycle;Signal;HPM_P1;HPM_P2
2022/02/01 00:01:55;;;;;;;22.98;13.95;;;5.70;99.90;;;;;;5032786;28;20082;-49
2022/02/01 00:04:33;;;;;;;;;;;5.70;99.90;;;;;;5057742;28;20396;-48
2022/02/01 00:07:11;;;;;;;28.83;16.13;;;5.60;99.90;;;;;;5069961;28;19908;-48
2022/02/01 00:36:16;;;;;;;41.22;22.25;;;5.00;99.90;;;;;;5074802;28;20028;-55
2022/02/01 00:38:54;;;;;;;39.60;21.77;;;;;;;;;;5039652;28;20400;-48
2022/02/01 00:41:26;;;;;;;37.20;21.23;;;;;;;;;;5046453;28;20036;-48
2022/02/01 00:43:52;;;;;;;;;;;;;;;;;;5052247;28;20392;-52
2022/02/01 00:46:18;;;;;;;35.10;20.45;;;;;;;;;;5075658;28;19904;-48
2022/02/01 00:48:45;;;;;;;43.97;25.92;;;;;;;;;;5013230;28;20077;-48
2022/02/01 00:51:12;;;;;;;37.25;22.13;;;;;;;;;;5039287;28;20033;-48
2022/02/01 00:53:40;;;;;;;36.38;21.13;;;;;;;;;;5071387;28;20039;-48
2022/02/01 00:56:06;;;;;;;42.80;24.48;;;;;;;;;;5072704;28;20037;-48
2022/02/01 00:58:33;;;;;;;34.72;19.38;;;;;;;;;;5069788;28;20457;-48
2022/02/01 01:00:59;;;;;;;37.22;20.50;;;;;;;;;;5038154;28;20050;-53
2022/02/01 01:03:25;;;;;;;41.75;23.88;;;;;;;;;;5074614;28;20547;-53
2022/02/01 01:05:53;;;;;;;39.65;20.88;;;;;;;;;;5072749;28;20021;-49
2022/02/01 01:08:20;;;;;;;39.22;23.65;;;;;;;;;;5074932;28;20024;-48
2022/02/01 01:10:47;;;;;;;40.70;21.25;;;;;;;;;;5075458;28;20487;-48
2022/02/01 01:16:13;;;;;;;36.15;19.33;;;;;;;;;;5072039;28;20123;-48
2022/02/01 01:54:08;;;;;;;35.53;19.02;;;4.20;99.90;;;;;;5069781;28;20044;-48
2022/02/01 01:56:35;;;;;;;30.42;17.95;;;4.20;99.90;;;;;;5025791;28;20036;-49
2022/02/01 01:59:04;;;;;;;33.22;16.98;;;4.30;99.90;;;;;;5068871;28;20029;-48
2022/02/01 02:01:32;;;;;;;34.97;17.75;;;4.30;99.90;;;;;;5064889;28;20025;-48
2022/02/01 02:03:58;;;;;;;30.98;16.10;;;4.40;99.90;;;;;;5068605;28;20099;-48
2022/02/01 02:06:24;;;;;;;28.95;16.92;;;4.40;99.90;;;;;;5073640;28;20036;-55
2022/02/01 02:08:53;;;;;;;25.17;15.18;;;4.30;99.90;;;;;;5070188;28;20024;-48
2022/02/01 02:14:20;;;;;;;25.85;16.55;;;4.10;99.90;;;;;;5069948;28;20511;-48
2022/02/01 02:16:53;;;;;;;26.98;15.88;;;4.00;99.90;;;;;;5073065;28;20029;-48
2022/02/01 02:19:21;;;;;;;28.65;18.05;;;4.00;99.90;;;;;;5069572;28;20103;-48
2022/02/01 02:21:49;;;;;;;30.40;17.20;;;4.10;99.90;;;;;;5068170;28;20029;-47
2022/02/01 02:24:16;;;;;;;146.25;114.22;;;4.10;99.90;;;;;;5068541;28;20087;-48
2022/02/01 02:26:43;;;;;;;27.70;16.13;;;4.10;99.90;;;;;;5072332;28;20052;-48
2022/02/01 02:29:09;;;;;;;137.40;112.40;;;3.90;99.90;;;;;;5068502;28;20036;-47
2022/02/01 02:31:38;;;;;;;262.20;235.27;;;3.80;99.90;;;;;;5040550;28;20036;-48
2022/02/01 02:34:11;;;;;;;30.63;18.08;;;3.80;99.90;;;;;;5067155;28;20036;-48
2022/02/01 02:36:43;;;;;;;30.75;19.55;;;3.80;99.90;;;;;;5063492;28;20040;-48
2022/02/01 02:39:19;;;;;;;24.02;15.02;;;3.90;99.90;;;;;;5068479;28;20045;-47
2022/02/01 02:47:15;;;;;;;29.88;19.55;;;3.80;99.90;;;;;;5067624;28;20020;-47
2022/02/01 02:49:41;;;;;;;30.02;17.60;;;4.00;99.90;;;;;;5071528;28;20032;-48
2022/02/01 02:52:07;;;;;;;33.03;19.10;;;3.90;99.90;;;;;;5071800;28;20077;-48
2022/02/01 02:54:32;;;;;;;28.83;18.48;;;4.00;99.90;;;;;;5032219;28;20150;-48
2022/02/01 02:57:05;;;;;;;36.55;20.65;;;4.10;99.90;;;;;;5070501;28;20112;-48
2022/02/01 02:59:32;;;;;;;30.90;19.95;;;4.10;99.90;;;;;;5069850;28;20384;-48
2022/02/01 03:02:00;;;;;;;34.13;20.92;;;4.10;99.90;;;;;;5068177;28;20036;-48
2022/02/01 03:04:29;;;;;;;29.92;18.90;;;4.20;99.90;;;;;;5072425;28;20357;-48
2022/02/01 03:06:55;;;;;;;30.98;19.90;;;4.00;99.90;;;;;;5044258;28;20123;-48
2022/02/01 03:09:23;;;;;;;38.55;22.15;;;4.10;99.90;;;;;;5067898;28;20037;-48
2022/02/01 03:11:56;;;;;;;33.53;17.98;;;4.20;99.90;;;;;;5068142;28;20024;-47
2022/02/01 03:14:28;;;;;;;38.80;22.00;;;4.10;99.90;;;;;;5071435;28;20465;-48
2022/02/01 03:22:05;;;;;;;34.50;18.20;;;4.00;99.90;;;;;;5039842;28;20047;-47
2022/02/01 03:24:31;;;;;;;31.73;19.15;;;4.00;99.90;;;;;;5071950;28;20025;-47
2022/02/01 03:26:57;;;;;;;38.15;19.77;;;4.10;99.90;;;;;;5072233;28;20109;-48
2022/02/01 03:29:23;;;;;;;35.28;18.90;;;4.10;99.90;;;;;;5070319;28;20038;-48
2022/02/01 03:31:49;;;;;;;36.45;19.85;;;4.10;99.90;;;;;;5073563;28;20025;-48
2022/02/01 03:34:15;;;;;;;33.80;21.00;;;4.10;99.90;;;;;;5073174;28;20033;-48
2022/02/01 03:36:41;;;;;;;35.08;20.60;;;4.20;99.90;;;;;;5075743;28;20025;-57
2022/02/01 03:39:07;;;;;;;36.45;20.88;;;4.30;99.90;;;;;;5073685;28;20047;-48
2022/02/01 03:41:33;;;;;;;40.13;22.23;;;4.40;99.90;;;;;;5056394;28;20033;-48
2022/02/01 03:44:00;;;;;;;37.83;21.48;;;4.50;99.90;;;;;;5073416;28;20060;-48
2022/02/01 03:46:27;;;;;;;45.25;22.27;;;4.40;99.90;;;;;;5037482;28;20044;-48
2022/02/01 03:48:52;;;;;;;36.13;19.65;;;4.30;99.90;;;;;;5074043;28;20480;-50
2022/02/01 03:51:18;;;;;;;38.70;20.48;;;4.40;99.90;;;;;;5055307;28;20028;-48
2022/02/01 03:53:44;;;;;;;40.95;21.48;;;4.40;99.90;;;;;;5052495;28;20032;-48
2022/02/01 03:56:10;;;;;;;30.02;17.20;;;4.40;99.90;;;;;;5075164;28;20035;-54
2022/02/01 03:58:35;;;;;;;41.40;20.65;;;4.30;99.90;;;;;;5071805;28;20380;-48
2022/02/01 04:01:01;;;;;;;37.78;20.35;;;4.40;99.90;;;;;;5072816;28;20492;-48
2022/02/01 04:03:28;;;;;;;51.20;24.17;;;4.40;99.90;;;;;;5070038;28;20020;-47
2022/02/01 04:05:54;;;;;;;41.20;22.27;;;4.50;99.90;;;;;;5055933;28;20036;-47
2022/02/01 04:08:22;;;;;;;53.20;23.50;;;4.50;99.90;;;;;;5055113;28;20366;-48
2022/02/01 04:10:49;;;;;;;48.20;24.23;;;4.60;99.90;;;;;;4997141;28;20044;-48
2022/02/01 04:13:16;;;;;;;50.50;23.90;;;4.60;99.90;;;;;;5023450;28;20098;-48
2022/02/01 04:15:43;;;;;;;55.95;24.48;;;4.60;99.90;;;;;;5072863;28;20396;-51
2022/02/01 04:18:09;;;;;;;60.47;25.20;;;4.50;99.90;;;;;;5031798;28;20488;-48
2022/02/01 04:20:35;;;;;;;63.05;26.13;;;4.50;99.90;;;;;;5076437;28;20464;-48
2022/02/01 04:23:01;;;;;;;46.90;24.40;;;4.50;99.90;;;;;;5042441;28;20032;-48
2022/02/01 04:25:27;;;;;;;67.07;25.02;;;4.60;99.90;;;;;;5066955;28;20032;-48
2022/02/01 04:27:53;;;;;;;42.65;22.60;;;4.40;99.90;;;;;;4975977;28;20093;-48
2022/02/01 04:30:19;;;;;;;44.67;22.80;;;4.40;99.90;;;;;;5071007;28;20142;-49
2022/02/01 04:32:50;;;;;;;60.78;23.15;;;4.50;99.90;;;;;;5072127;28;20151;-48
2022/02/01 04:35:36;;;;;;;55.77;23.50;;;4.50;99.90;;;;;;5071976;28;20472;-48
2022/02/01 04:38:02;;;;;;;52.17;23.95;;;4.50;99.90;;;;;;5040192;28;20045;-48
2022/02/01 04:40:33;;;;;;;54.10;22.35;;;4.60;99.90;;;;;;5070584;28;20074;-48
2022/02/01 04:42:58;;;;;;;49.45;22.48;;;4.70;99.90;;;;;;5071857;28;20044;-48
2022/02/01 04:45:24;;;;;;;70.80;25.45;;;4.70;99.90;;;;;;5025268;28;20067;-47
2022/02/01 04:47:52;;;;;;;52.92;24.33;;;4.70;99.90;;;;;;5051387;28;20040;-48
2022/02/01 04:50:19;;;;;;;67.45;25.95;;;;;;;;;;5072526;28;20032;-48
2022/02/01 04:52:49;;;;;;;64.70;28.08;;;4.90;99.90;;;;;;5036458;28;20044;-48
2022/02/01 04:55:15;;;;;;;70.68;26.83;;;5.00;99.90;;;;;;5029399;28;20545;-48
2022/02/01 04:57:54;;;;;;;57.38;25.42;;;5.00;99.90;;;;;;4999376;28;20375;-48
2022/02/01 05:00:24;;;;;;;56.40;24.88;;;;;;;;;;5033835;28;20038;-48
2022/02/01 05:02:50;;;;;;;55.58;26.30;;;5.10;99.90;;;;;;5033563;28;20374;-48
2022/02/01 05:05:18;;;;;;;50.88;24.48;;;5.10;99.90;;;;;;5032320;28;20041;-48
2022/02/01 05:07:44;;;;;;;54.45;25.67;;;5.30;99.90;;;;;;5032362;28;20033;-48
2022/02/01 05:10:09;;;;;;;51.45;25.85;;;5.40;99.90;;;;;;5032059;28;20077;-48
2022/02/01 05:12:37;;;;;;;48.10;23.13;;;;;;;;;;4982937;28;20469;-48
2022/02/01 05:15:07;;;;;;;50.17;24.33;;;;;;;;;;5032290;28;20056;-48
2022/02/01 05:17:35;;;;;;;50.08;24.75;;;5.70;99.90;;;;;;5031778;28;20037;-48
2022/02/01 05:20:13;;;;;;;53.35;23.33;;;5.70;99.90;;;;;;5031983;28;20131;-47
2022/02/01 05:22:41;;;;;;;51.15;23.70;;;5.50;99.90;;;;;;5032082;28;20176;-48
2022/02/01 05:25:07;;;;;;;53.55;25.02;;;5.50;99.90;;;;;;5034155;28;20037;-48
2022/02/01 05:27:33;;;;;;;52.47;25.17;;;5.40;99.90;;;;;;5039201;28;20270;-48
2022/02/01 05:29:59;;;;;;;55.38;25.70;;;5.40;99.90;;;;;;5074043;28;20040;-48
2022/02/01 05:32:25;;;;;;;71.60;27.00;;;5.50;99.90;;;;;;5051913;28;20040;-48
2022/02/01 05:34:55;;;;;;;56.88;22.88;;;5.40;99.90;;;;;;5074238;28;20039;-48
2022/02/01 05:37:21;;;;;;;70.80;25.75;;;5.30;99.90;;;;;;5073066;28;20091;-48
2022/02/01 05:39:47;;;;;;;117.32;28.77;;;5.30;99.90;;;;;;5037147;28;20412;-47
2022/02/01 05:42:17;;;;;;;82.85;30.20;;;;;;;;;;5003279;28;20115;-48
2022/02/01 05:44:44;;;;;;;80.05;29.27;;;;;;;;;;5073842;28;20037;-48
2022/02/01 05:47:10;;;;;;;77.60;28.05;;;;;;;;;;5073923;28;20052;-48
2022/02/01 05:49:37;;;;;;;106.20;27.13;;;;;;;;;;5038887;28;20560;-48
2022/02/01 05:52:03;;;;;;;105.30;28.80;;;;;;;;;;5071340;28;20024;-47
2022/02/01 05:54:30;;;;;;;107.18;28.80;;;;;;;;;;5073672;28;20485;-48
2022/02/01 05:56:58;;;;;;;83.50;26.67;;;;;;;;;;5072385;28;20067;-48
2022/02/01 05:59:24;;;;;;;90.70;25.95;;;;;;;;;;5069190;28;20068;-48
2022/02/01 06:01:50;;;;;;;96.47;26.13;;;5.40;99.90;;;;;;5012268;28;20389;-48
2022/02/01 06:04:15;;;;;;;80.75;22.60;;;5.70;99.90;;;;;;5062363;28;20017;-48
2022/02/01 06:06:41;;;;;;;83.70;23.50;;;5.60;99.90;;;;;;5060223;28;20035;-48
2022/02/01 06:09:07;;;;;;;87.63;23.05;;;5.40;99.90;;;;;;5065616;28;20028;-48
2022/02/01 06:11:33;;;;;;;78.43;21.98;;;5.40;99.90;;;;;;5027821;28;20044;-49
2022/02/01 06:13:58;;;;;;;57.13;21.08;;;5.40;99.90;;;;;;5060417;28;20045;-48
2022/02/01 06:16:24;;;;;;;70.43;22.33;;;5.10;99.90;;;;;;5060208;28;20063;-51
2022/02/01 06:18:51;;;;;;;65.20;20.95;;;;;;;;;;5062138;28;20063;-49
2022/02/01 06:21:17;;;;;;;66.75;19.73;;;4.80;99.90;;;;;;5060119;28;20029;-50
2022/02/01 06:23:42;;;;;;;62.75;21.42;;;4.80;99.90;;;;;;5064850;28;20500;-49
2022/02/01 06:26:08;;;;;;;60.45;20.60;;;4.90;99.90;;;;;;5061397;28;20345;-50
2022/02/01 06:28:34;;;;;;;49.90;17.30;;;4.80;99.90;;;;;;5065621;28;20495;-49
2022/02/01 06:30:59;;;;;;;59.58;19.90;;;4.80;99.90;;;;;;5066782;28;20017;-49
2022/02/01 06:33:26;;;;;;;56.33;18.70;;;4.70;99.90;;;;;;5064029;28;20032;-49
2022/02/01 06:35:52;;;;;;;73.45;22.77;;;4.60;99.90;;;;;;5063314;28;20042;-49
2022/02/01 06:38:19;;;;;;;47.60;18.98;;;4.60;99.90;;;;;;5049232;28;20676;-50
2022/02/01 06:40:46;;;;;;;42.20;17.98;;;4.60;99.90;;;;;;5049616;28;20028;-51
2022/02/01 06:43:13;;;;;;;50.80;22.25;;;4.70;99.90;;;;;;5051874;28;20159;-49
2022/02/01 06:45:40;;;;;;;41.47;17.77;;;4.70;99.90;;;;;;5055532;28;20029;-49
2022/02/01 06:48:06;;;;;;;43.30;17.42;;;4.60;99.90;;;;;;5051408;28;20056;-48
2022/02/01 06:50:34;;;;;;;47.67;18.95;;;4.40;99.90;;;;;;5054352;28;20035;-49
2022/02/01 06:53:02;;;;;;;40.58;18.70;;;;;;;;;;5054170;28;20061;-49
2022/02/01 06:56:07;;;;;;;39.00;19.33;;;4.40;99.90;;;;;;5051598;28;20029;-49
2022/02/01 06:58:21;;;;;;;41.10;18.70;;;4.50;99.90;;;;;;5050939;28;20060;-49
2022/02/01 07:00:47;;;;;;;39.28;19.55;;;4.60;99.90;;;;;;5051642;28;20025;-49
2022/02/01 07:03:12;;;;;;;39.20;19.40;;;4.70;99.90;;;;;;5020943;28;20036;-49
2022/02/01 07:05:38;;;;;;;38.97;18.63;;;4.70;99.90;;;;;;5056586;28;20032;-49
2022/02/01 07:08:05;;;;;;;39.92;19.42;;;4.70;99.90;;;;;;5055393;28;20144;-50
2022/02/01 07:10:31;;;;;;;35.58;17.50;;;4.70;99.90;;;;;;5055482;28;20032;-49
2022/02/01 07:12:57;;;;;;;37.03;20.40;;;4.60;99.90;;;;;;5064318;28;20103;-49
2022/02/01 07:15:23;;;;;;;26.17;12.13;;;4.70;99.90;;;;;;5075373;28;20108;-49
2022/02/01 07:17:51;;;;;;;40.20;20.38;;;4.60;99.90;;;;;;5006916;28;20503;-49
2022/02/01 07:20:18;;;;;;;39.42;18.70;;;4.70;99.90;;;;;;5055264;28;20539;-49
2022/02/01 07:22:46;;;;;;;33.63;18.27;;;4.80;99.90;;;;;;5055368;28;20433;-49
2022/02/01 07:25:23;;;;;;;33.60;17.90;;;4.90;99.90;;;;;;5055037;28;20423;-49
2022/02/01 07:27:51;;;;;;;33.33;17.77;;;4.90;99.90;;;;;;5053816;28;20037;-49
2022/02/01 07:30:19;;;;;;;252.55;212.77;;;4.90;99.90;;;;;;5054942;28;20087;-49
2022/02/01 07:32:46;;;;;;;402.75;361.88;;;4.80;99.90;;;;;;5055386;28;20029;-49
2022/02/01 07:35:12;;;;;;;161.25;111.50;;;4.80;99.90;;;;;;5055122;28;20036;-49
2022/02/01 07:37:39;;;;;;;25.63;13.48;;;;;;;;;;5031671;28;20040;-49
2022/02/01 07:40:06;;;;;;;32.08;19.13;;;;;;;;;;5074800;28;20372;-49
2022/02/01 07:42:32;;;;;;;29.08;15.95;;;;;;;;;;5038693;28;20094;-49
2022/02/01 07:45:01;;;;;;;28.65;15.95;;;;;;;;;;5073393;28;20115;-50
2022/02/01 07:47:27;;;;;;;28.25;15.73;;;;;;;;;;5031269;28;20451;-50
2022/02/01 07:49:53;;;;;;;103.63;89.05;;;;;;;;;;5062048;28;20033;-50
2022/02/01 07:52:20;;;;;;;55.15;28.23;;;;;;;;;;5066820;28;20024;-51
2022/02/01 07:54:47;;;;;;;29.77;15.18;;;;;;;;;;5065005;28;20465;-51
2022/02/01 07:57:14;;;;;;;527.53;473.17;;;;;;;;;;5064150;28;20385;-51
2022/02/01 07:59:40;;;;;;;26.90;16.10;;;;;;;;;;5069219;28;20115;-51
2022/02/01 08:02:17;;;;;;;35.58;19.80;;;;;;;;;;5074496;28;20028;-51
2022/02/01 08:04:43;;;;;;;24.42;13.35;;;;;;;;;;5070021;28;20461;-50
2022/02/01 08:07:09;;;;;;;30.88;16.80;;;;;;;;;;5070229;28;20039;-50
2022/02/01 08:09:39;;;;;;;32.03;16.55;;;;;;;;;;5068763;28;20024;-50
2022/02/01 08:12:14;;;;;;;31.00;17.17;;;;;;;;;;5066508;28;20040;-50
2022/02/01 08:17:35;;;;;;;30.75;18.40;;;;;;;;;;5016290;28;20078;-50
2022/02/01 08:24:55;;;;;;;27.63;15.27;;;4.50;99.90;;;;;;5068008;28;20660;-50
2022/02/01 08:27:20;;;;;;;31.65;19.38;;;4.50;99.90;;;;;;5067591;28;20033;-50
2022/02/01 08:29:46;;;;;;;26.95;17.90;;;4.70;99.90;;;;;;5065324;28;20547;-56
2022/02/01 08:32:12;;;;;;;26.45;15.45;;;4.70;99.90;;;;;;5063967;28;20120;-49
2022/02/01 08:34:38;;;;;;;36.10;21.08;;;4.70;99.90;;;;;;5064848;28;20096;-49
2022/02/01 08:37:04;;;;;;;42.70;25.95;;;4.80;99.90;;;;;;4985734;28;20040;-50
2022/02/01 08:39:29;;;;;;;41.83;23.35;;;4.80;99.90;;;;;;5019572;28;20033;-49
2022/02/01 08:41:55;;;;;;;39.15;20.88;;;4.90;99.90;;;;;;5041142;28;20040;-50
2022/02/01 08:44:27;;;;;;;42.33;25.30;;;4.80;99.90;;;;;;4991464;28;20504;-49
2022/02/01 08:46:54;;;;;;;64.95;24.98;;;4.90;99.90;;;;;;5072351;28;20037;-50
2022/02/01 08:49:20;;;;;;;28.70;16.77;;;4.80;99.90;;;;;;5075350;28;20045;-51
2022/02/01 08:51:55;;;;;;;34.85;19.98;;;4.60;99.90;;;;;;5022591;28;20039;-50
2022/02/01 08:54:22;;;;;;;40.45;22.80;;;4.60;99.90;;;;;;5024922;28;20068;-50
2022/02/01 08:59:33;;;;;;;51.60;26.27;;;4.80;99.90;;;;;;5068395;28;20043;-50
2022/02/01 09:01:58;;;;;;;56.47;27.85;;;4.70;99.90;;;;;;5054619;28;20173;-49
2022/02/01 09:04:24;;;;;;;43.28;26.50;;;4.60;99.90;;;;;;5073282;28;20087;-51
2022/02/01 09:06:50;;;;;;;44.85;31.08;;;4.40;99.90;;;;;;5073110;28;20028;-50
2022/02/01 09:09:16;;;;;;;80.53;68.97;;;4.50;99.90;;;;;;5073306;28;20025;-50
2022/02/01 09:11:42;;;;;;;36.30;22.75;;;4.70;99.90;;;;;;5067461;28;20037;-49
2022/02/01 09:14:07;;;;;;;32.70;20.27;;;4.70;99.90;;;;;;5049057;28;20477;-49
2022/02/01 09:16:34;;;;;;;52.08;26.63;;;4.70;99.90;;;;;;5019707;28;20040;-49
2022/02/01 09:18:59;;;;;;;32.88;21.92;;;4.80;99.90;;;;;;5070630;28;20486;-49
2022/02/01 09:21:25;;;;;;;23.27;14.23;;;4.70;99.90;;;;;;5035687;28;20050;-50
2022/02/01 09:23:51;;;;;;;48.00;34.78;;;4.60;99.90;;;;;;4992331;28;20480;-50
2022/02/01 09:26:17;;;;;;;32.33;23.75;;;4.80;99.90;;;;;;5057006;28;20025;-49
2022/02/01 09:28:44;;;;;;;42.40;24.50;;;4.70;99.90;;;;;;5069638;28;20040;-50
2022/02/01 09:31:10;;;;;;;59.38;48.55;;;4.70;99.90;;;;;;5054226;28;20050;-50
2022/02/01 09:33:36;;;;;;;32.95;22.85;;;4.80;99.90;;;;;;5071745;28;20542;-48
2022/02/01 09:36:02;;;;;;;27.67;15.80;;;4.70;99.90;;;;;;5072627;28;20046;-49
2022/02/01 09:38:31;;;;;;;45.97;21.02;;;4.70;99.90;;;;;;5070494;28;20539;-52
2022/02/01 09:40:58;;;;;;;25.00;16.23;;;4.60;99.90;;;;;;4986941;28;20040;-52
2022/02/01 09:43:23;;;;;;;27.27;17.77;;;4.50;99.90;;;;;;5020515;28;20040;-52
2022/02/01 09:45:55;;;;;;;26.73;18.85;;;4.60;99.90;;;;;;5013962;28;20039;-52
2022/02/01 09:48:22;;;;;;;31.52;17.55;;;4.70;99.90;;;;;;5062852;28;20083;-52
2022/02/01 09:50:49;;;;;;;41.25;30.17;;;4.80;99.90;;;;;;5043584;28;20073;-52
2022/02/01 09:53:16;;;;;;;31.98;20.83;;;4.80;99.90;;;;;;5062594;28;20025;-51
2022/02/01 09:55:42;;;;;;;28.35;19.83;;;4.80;99.90;;;;;;5061943;28;20059;-53
2022/02/01 09:58:11;;;;;;;23.35;17.23;;;4.90;99.90;;;;;;5060956;28;20031;-52
2022/02/01 10:00:53;;;;;;;25.15;17.88;;;5.00;99.90;;;;;;5060194;28;20124;-52
2022/02/01 10:03:20;;;;;;;29.33;17.00;;;5.00;99.90;;;;;;5054294;28;20033;-52
2022/02/01 10:06:06;;;;;;;26.00;17.92;;;4.90;99.90;;;;;;5067016;28;20273;-52
2022/02/01 10:08:32;;;;;;;22.08;15.05;;;5.00;99.90;;;;;;5065578;28;20078;-52
2022/02/01 10:10:58;;;;;;;25.23;17.63;;;5.00;99.90;;;;;;5031342;28;20063;-52
2022/02/01 10:13:24;;;;;;;22.02;14.13;;;5.10;99.90;;;;;;5069832;28;20373;-52
2022/02/01 10:16:02;;;;;;;27.88;19.30;;;5.00;99.90;;;;;;5068659;28;20025;-52
2022/02/01 10:18:31;;;;;;;26.13;18.55;;;5.20;99.90;;;;;;5068375;28;20041;-52
2022/02/01 10:21:05;;;;;;;28.55;19.40;;;5.30;99.90;;;;;;5068696;28;20029;-52
2022/02/01 10:23:33;;;;;;;27.25;18.85;;;5.20;99.90;;;;;;5071717;28;20021;-52
2022/02/01 10:26:05;;;;;;;30.33;20.90;;;5.30;99.90;;;;;;5071771;28;20033;-52
2022/02/01 10:29:18;;;;;;;28.27;19.63;;;5.40;99.90;;;;;;5071074;28;20112;-52
2022/02/01 10:31:50;;;;;;;33.40;23.02;;;5.60;99.90;;;;;;5027334;28;20044;-52
2022/02/01 10:37:01;;;;;;;57.28;32.72;;;5.50;99.90;;;;;;5061156;28;20112;-51
2022/02/01 10:39:33;;;;;;;54.60;33.25;;;5.60;99.90;;;;;;5067526;28;20040;-51
2022/02/01 10:42:02;;;;;;;27.10;18.95;;;;;;;;;;5067159;28;20033;-52
2022/02/01 10:44:47;;;;;;;24.67;15.93;;;;;;;;;;5057716;28;20052;-52
2022/02/01 10:47:15;;;;;;;21.20;15.90;;;;;;;;;;5066056;28;20455;-51
2022/02/01 10:49:41;;;;;;;21.98;14.00;;;;;;;;;;5065239;28;20191;-52
2022/02/01 10:52:08;;;;;;;20.90;15.45;;;;;;;;;;5064422;28;20029;-51
2022/02/01 10:54:35;;;;;;;93.55;48.72;;;;;;;;;;5061412;28;20040;-51
2022/02/01 10:57:02;;;;;;;247.50;94.30;;;;;;;;;;5066950;28;20046;-49
2022/02/01 10:59:29;;;;;;;25.83;17.65;;;7.00;99.90;;;;;;5015276;28;20265;-50
2022/02/01 11:01:56;;;;;;;32.38;16.60;;;;;;;;;;5014339;28;20045;-52
2022/02/01 11:04:23;;;;;;;33.78;19.23;;;5.70;99.90;;;;;;5068439;28;20020;-49
2022/02/01 11:06:51;;;;;;;45.70;21.25;;;;;;;;;;5072077;28;20032;-48
2022/02/01 11:09:20;;;;;;;23.70;14.23;;;;;;;;;;5061073;28;20061;-49
2022/02/01 11:11:53;;;;;;;56.15;25.55;;;;;;;;;;5055239;28;20043;-49
2022/02/01 11:14:22;;;;;;;31.15;18.10;;;;;;;;;;5029353;28;20129;-50
2022/02/01 11:16:49;;;;;;;24.67;14.98;;;;;;;;;;5032913;28;20046;-50
2022/02/01 11:19:15;;;;;;;91.68;34.40;;;;;;;;;;5031297;28;20493;-49
2022/02/01 11:21:45;;;;;;;41.83;17.20;;;;;;;;;;5018934;28;20030;-50
2022/02/01 11:24:20;;;;;;;26.58;14.07;;;;;;;;;;5030404;28;20037;-49
2022/02/01 11:26:50;;;;;;;18.98;12.45;;;;;;;;;;4986539;28;20042;-49
2022/02/01 11:31:54;;;;;;;19.40;12.18;;;;;;;;;;5030829;28;20049;-49
2022/02/01 11:34:20;;;;;;;45.10;19.20;;;;;;;;;;5028458;28;20444;-50
2022/02/01 11:36:46;;;;;;;43.90;20.80;;;;;;;;;;5034171;28;20021;-49
2022/02/01 11:39:13;;;;;;;30.73;16.50;;;;;;;;;;5000882;28;20152;-49
2022/02/01 11:41:41;;;;;;;217.82;99.82;;;;;;;;;;5000991;28;20564;-49
2022/02/01 11:44:07;;;;;;;91.75;72.63;;;;;;;;;;5001697;28;20036;-49
2022/02/01 11:46:33;;;;;;;21.88;15.30;;;;;;;;;;5076111;28;20021;-49
2022/02/01 11:49:01;;;;;;;28.48;18.40;;;;;;;;;;5076067;28;20072;-49
2022/02/01 11:51:30;;;;;;;96.97;81.03;;;;;;;;;;5075273;28;20416;-48
2022/02/01 11:53:58;;;;;;;137.23;99.53;;;;;;;;;;5075976;28;20039;-49
2022/02/01 11:56:31;;;;;;;126.78;76.38;;;;;;;;;;5076002;28;20039;-49
2022/02/01 11:59:00;;;;;;;54.15;44.13;;;6.10;99.90;;;;;;5075898;28;20438;-49
2022/02/01 12:01:34;;;;;;;267.83;242.88;;;6.00;99.90;;;;;;5077098;28;20032;-49
2022/02/01 12:04:14;;;;;;;414.75;384.15;;;6.10;99.90;;;;;;5077615;28;20021;-51
2022/02/01 12:06:46;;;;;;;477.45;434.88;;;6.10;99.90;;;;;;5077375;28;20360;-49
2022/02/01 12:09:23;;;;;;;662.80;601.70;;;6.10;99.90;;;;;;5076214;28;20124;-49
2022/02/01 12:11:58;;;;;;;605.67;547.50;;;6.00;99.90;;;;;;5043520;28;20036;-50
2022/02/01 12:14:25;;;;;;;477.63;429.33;;;6.10;99.90;;;;;;5058156;28;20040;-49
2022/02/01 12:16:52;;;;;;;22.63;16.50;;;5.90;99.90;;;;;;5075856;28;20021;-49
2022/02/01 12:19:36;;;;;;;32.00;21.27;;;6.00;99.90;;;;;;5075319;28;20041;-49
2022/02/01 12:22:36;;;;;;;26.02;18.88;;;6.00;99.90;;;;;;5075536;28;20017;-49
2022/02/01 12:25:04;;;;;;;31.77;21.15;;;6.20;99.90;;;;;;5052659;28;20083;-49
2022/02/01 12:27:37;;;;;;;29.17;22.00;;;6.00;99.90;;;;;;5075363;28;20031;-49
2022/02/01 12:30:05;;;;;;;31.27;22.55;;;6.20;99.90;;;;;;5075462;28;20055;-50
2022/02/01 12:32:31;;;;;;;29.33;21.10;;;6.20;99.90;;;;;;5040435;28;20167;-49
2022/02/01 12:34:57;;;;;;;38.22;22.08;;;6.20;99.90;;;;;;5040091;28;20488;-49
2022/02/01 12:37:24;;;;;;;29.92;22.17;;;6.10;99.90;;;;;;5057130;28;20039;-49
2022/02/01 12:40:04;;;;;;;28.95;20.92;;;6.20;99.90;;;;;;5075305;28;20039;-49
2022/02/01 12:42:43;;;;;;;32.92;22.27;;;6.30;99.90;;;;;;5075118;28;20037;-50
2022/02/01 12:48:01;;;;;;;31.88;21.40;;;6.10;99.90;;;;;;5074942;28;20105;-49
2022/02/01 12:50:27;;;;;;;24.50;18.42;;;6.00;99.90;;;;;;5074947;28;20043;-50
2022/02/01 12:52:57;;;;;;;26.30;18.83;;;6.10;99.90;;;;;;5074883;28;20106;-49
2022/02/01 12:55:25;;;;;;;31.25;22.73;;;6.10;99.90;;;;;;5074802;28;20024;-49
2022/02/01 12:57:52;;;;;;;42.97;25.73;;;6.10;99.90;;;;;;5074944;28;20277;-49
2022/02/01 13:00:20;;;;;;;35.50;21.38;;;6.10;99.90;;;;;;5039431;28;20033;-49
2022/02/01 13:02:47;;;;;;;30.52;21.02;;;6.10;99.90;;;;;;5074930;28;20029;-49
2022/02/01 13:05:17;;;;;;;20.02;14.63;;;5.90;99.90;;;;;;5074537;28;20024;-49
2022/02/01 13:21:04;;;;;;;29.20;16.33;;;5.50;99.90;;;;;;5074282;28;20081;-50
2022/02/01 13:23:35;;;;;;;22.58;15.70;;;5.10;99.90;;;;;;5074362;28;20370;-48
2022/02/01 13:26:06;;;;;;;22.48;12.43;;;5.10;99.90;;;;;;5074116;28;20029;-49
2022/02/01 13:28:33;;;;;;;21.15;14.60;;;5.00;99.90;;;;;;5074203;28;20035;-49
2022/02/01 13:31:10;;;;;;;16.20;11.55;;;4.90;99.90;;;;;;5039196;28;20068;-50
2022/02/01 13:33:58;;;;;;;22.05;15.30;;;4.90;99.90;;;;;;5073831;28;20029;-48
2022/02/01 13:36:25;;;;;;;17.75;12.15;;;5.00;99.90;;;;;;5073250;28;20035;-49
2022/02/01 13:38:58;;;;;;;20.27;13.52;;;4.90;99.90;;;;;;5073763;28;20376;-49
2022/02/01 13:41:26;;;;;;;24.95;17.38;;;4.90;99.90;;;;;;5073788;28;20392;-49
2022/02/01 13:43:56;;;;;;;26.75;17.98;;;5.00;99.90;;;;;;5073842;28;20116;-49
2022/02/01 13:46:32;;;;;;;24.45;16.83;;;5.20;99.90;;;;;;5074009;28;20032;-49
2022/02/01 13:49:13;;;;;;;22.80;16.73;;;5.40;99.90;;;;;;5052512;28;20048;-49
2022/02/01 13:51:54;;;;;;;39.55;26.00;;;5.30;99.90;;;;;;5073682;28;20024;-49
2022/02/01 13:54:20;;;;;;;32.47;20.77;;;5.30;99.90;;;;;;5073675;28;20032;-49
2022/02/01 13:56:48;;;;;;;27.63;17.60;;;5.20;99.90;;;;;;5073519;28;20093;-49
2022/02/01 13:59:27;;;;;;;25.10;17.75;;;5.10;99.90;;;;;;5073735;28;20040;-49
2022/02/01 14:02:05;;;;;;;21.30;14.55;;;5.20;99.90;;;;;;5073617;28;20039;-49
2022/02/01 14:04:42;;;;;;;20.90;14.98;;;5.10;99.90;;;;;;5054751;28;20037;-49
2022/02/01 14:28:23;;;;;;;80.55;37.13;;;5.60;99.90;;;;;;5042352;28;20079;-49
2022/02/01 14:36:10;;;;;;;34.10;22.85;;;6.10;99.90;;;;;;5073265;28;20043;-50
2022/02/01 14:38:58;;;;;;;24.27;17.33;;;;;;;;;;5073003;28;20449;-49
2022/02/01 14:46:44;;;;;;;48.10;29.63;;;;;;;;;;5073057;28;20044;-49
2022/02/01 14:49:10;;;;;;;77.78;54.15;;;;;;;;;;5072785;28;20139;-49
2022/02/01 14:51:37;;;;;;;85.82;47.53;;;;;;;;;;5073293;28;20021;-49
2022/02/01 14:54:06;;;;;;;46.47;35.08;;;;;;;;;;5072936;28;20035;-49
2022/02/01 14:56:36;;;;;;;622.50;555.83;;;;;;;;;;5072817;28;20048;-49
2022/02/01 15:07:17;;;;;;;715.47;647.60;;;;;;;;;;5072840;28;20468;-49
2022/02/01 15:15:04;;;;;;;18.45;12.35;;;;;;;;;;5072898;28;20035;-49
2022/02/01 15:17:30;;;;;;;21.90;13.93;;;;;;;;;;5072736;28;20024;-50
2022/02/01 15:19:56;;;;;;;22.75;15.20;;;;;;;;;;5050316;28;20037;-49
2022/02/01 15:22:22;;;;;;;43.72;21.65;;;;;;;;;;5017410;28;20052;-49
2022/02/01 15:24:48;;;;;;;21.52;12.80;;;;;;;;;;5050342;28;20033;-48
2022/02/01 15:27:18;;;;;;;29.95;17.55;;;;;;;;;;5037169;28;20123;-49
2022/02/01 15:29:45;;;;;;;20.67;15.27;;;;;;;;;;5054094;28;20043;-49
2022/02/01 15:32:11;;;;;;;31.15;20.55;;;6.10;99.90;;;;;;5054147;28;20644;-49
2022/02/01 15:34:40;;;;;;;21.00;13.27;;;;;;;;;;5054148;28;20045;-49
2022/02/01 15:37:06;;;;;;;19.10;13.13;;;;;;;;;;5053977;28;20052;-49
2022/02/01 15:59:00;;;;;;;33.88;22.98;;;6.20;99.90;;;;;;4994171;28;20053;-49
2022/02/01 16:04:13;;;;;;;33.65;20.83;;;;;;;;;;4955007;29;20054;-50
2022/02/01 16:06:41;;;;;;;31.15;19.52;;;;;;;;;;4954086;29;20054;-49
2022/02/01 16:09:17;;;;;;;26.48;19.40;;;;;;;;;;4953850;29;20110;-49